Latest Weather Observations for Wagga Wagga

IDN60801

Issued at 10:32 am EDT Friday 12 February 2016 (issued every 30 minutes, with the page automatically refreshed every 10 minutes)

About weather observations | Map of weather stations | Latest weather observations for NSW | Other Formats
Station Details ID: 072150 Name: WAGGA WAGGA AMO Lat: -35.16 Lon: 147.46 Height: 212.0 m
Data from the previous 72 hours. | See also: Recent months at Wagga Wagga
Date/Time
EDT
Temp
°C
App
Temp
°C
Dew
Point
Rel
Hum
%
Delta-T
°C
Wind Press
QNH
hPa
Press
MSL
hPa
Rain
since 9 am
mm
Dir
 
Spd
km/h
Gust
km/h
Spd
kts
Gust
kts
12/10:00am 26.4 23.9 15.1 49 6.9 ENE 22 30 12 16 1015.5 1014.5 0.0
12/09:30am 25.1 22.6 15.2 54 6.0 ENE 22 30 12 16 1015.6 1014.6 0.0
12/09:00am 24.4 22.0 15.3 57 5.5 ENE 22 28 12 15 1015.6 1014.6 0.0
12/08:30am 23.3 21.5 15.4 61 4.8 E 19 28 10 15 1015.4 1014.4 0.0
12/08:00am 22.1 20.0 15.3 65 4.1 E 20 26 11 14 1015.1 1014.1 0.0
12/07:30am 21.2 20.1 15.4 69 3.5 E 15 19 8 10 1014.9 1013.9 0.0
12/07:00am 20.1 19.0 15.4 74 2.8 ESE 15 17 8 9 1014.6 1013.5 0.0
12/06:30am 20.3 19.3 15.6 74 2.8 E 15 19 8 10 1014.3 1013.2 0.0
12/06:00am 20.5 19.9 15.7 74 2.9 E 13 19 7 10 1014.0 1013.0 0.0
12/05:30am 20.4 19.1 15.7 74 2.8 E 17 19 9 10 1013.7 1012.7 0.0
12/05:00am 20.6 19.2 15.6 73 3.0 E 17 19 9 10 1013.5 1012.5 0.0
12/04:30am 20.8 19.8 15.6 72 3.1 E 15 17 8 9 1013.5 1012.5 0.0
12/04:00am 20.4 19.8 15.7 74 2.8 ESE 13 15 7 8 1013.5 1012.5 0.0
12/03:30am 19.5 20.1 15.7 78 2.3 E 7 9 4 5 1013.6 1012.6 0.0
12/03:00am 18.5 19.0 15.5 83 1.8 E 7 7 4 4 1013.7 1012.7 0.0
12/02:30am 19.8 21.8 16.0 79 2.3 CALM 0 7 0 4 1013.7 1012.7 0.0
12/02:00am 22.2 22.5 15.9 67 3.8 E 9 9 5 5 1013.9 1012.9 0.0
12/01:30am 22.8 22.7 15.9 65 4.2 E 11 13 6 7 1013.9 1012.9 0.0
12/01:00am 23.2 23.0 15.8 63 4.5 E 11 13 6 7 1014.0 1013.0 0.0
12/12:30am 23.0 23.3 15.9 64 4.3 SE 9 11 5 6 1013.9 1012.9 0.0
12/12:00am 24.1 24.1 16.3 61 4.8 ENE 11 19 6 10 1013.5 1012.5 0.0
 
Date/Time
EDT
Temp
°C
App
Temp
°C
Dew
Point
Rel
Hum
%
Delta-T
°C
Wind Press
QNH
hPa
Press
MSL
hPa
Rain
since 9 am
mm
Dir
 
Spd
km/h
Gust
km/h
Spd
kts
Gust
kts
11/11:30pm 24.6 22.3 15.8 58 5.4 E 22 28 12 15 1013.4 1012.4 0.0
11/11:00pm 25.2 22.2 13.7 49 6.8 E 22 33 12 18 1013.5 1012.5 0.0
11/10:30pm 25.8 22.6 12.0 42 8.0 E 20 30 11 16 1013.6 1012.6 0.0
11/10:00pm 26.7 21.5 10.2 35 9.3 ENE 28 41 15 22 1013.3 1012.3 0.0
11/09:45pm 27.0 21.0 8.6 31 10.1 ENE 30 52 16 28 1012.9 1011.9 0.0
11/09:42pm 26.9 21.5 8.2 30 10.2 ENE 26 39 14 21 1012.8 1011.8 0.0
11/09:30pm 25.7 23.8 9.2 35 9.1 SE 9 13 5 7 1012.1 1011.1 0.0
11/09:00pm 25.8 24.4 10.8 39 8.5 S 9 11 5 6 1011.5 1010.5 0.0
11/08:30pm 27.5 25.0 8.1 29 10.6 S 11 11 6 6 1011.1 1010.1 0.0
11/08:00pm 29.5 26.8 7.3 24 12.1 S 11 15 6 8 1010.8 1009.8 0.0
11/07:30pm 30.9 27.5 5.9 20 13.4 SSW 13 19 7 10 1010.4 1009.3 0.0
11/07:00pm 32.9 28.3 -1.4 11 16.5 S 13 20 7 11 1010.0 1008.9 0.0
11/06:30pm 33.1 29.3 1.8 13 15.9 S 11 19 6 10 1009.8 1008.7 0.0
11/06:00pm 33.6 28.1 -2.3 10 17.1 S 17 22 9 12 1009.6 1008.5 0.0
11/05:30pm 34.1 29.6 -0.3 11 17.0 WSW 13 17 7 9 1009.5 1008.4 0.0
11/05:00pm 34.3 31.2 3.5 14 16.2 NNE 9 19 5 10 1009.6 1008.5 0.0
11/04:30pm 33.7 30.6 0.4 12 16.6 S 6 13 3 7 1009.8 1008.7 0.0
11/04:00pm 33.5 30.7 3.2 15 15.8 WSW 7 13 4 7 1010.1 1009.0 0.0
11/03:30pm 33.3 29.9 3.8 15 15.5 WSW 11 19 6 10 1010.5 1009.4 0.0
11/03:00pm 33.2 30.1 3.6 15 15.5 SSE 9 15 5 8 1010.9 1009.9 0.0
11/02:30pm 33.1 29.1 5.1 17 15.0 S 15 28 8 15 1011.3 1010.3 0.0
11/02:00pm 32.8 30.1 5.5 18 14.7 NNW 9 22 5 12 1011.7 1010.7 0.0
11/01:30pm 32.6 30.8 7.9 21 13.8 SE 7 13 4 7 1012.0 1011.0 0.0
11/01:00pm 32.1 30.2 9.0 24 13.1 NNW 9 17 5 9 1012.2 1011.2 0.0
11/12:30pm 31.3 29.7 10.1 27 12.2 NNE 9 17 5 9 1012.5 1011.5 0.0
11/12:00pm 30.2 28.6 11.6 31 10.9 E 11 19 6 10 1012.9 1011.9 0.0
11/11:30am 29.7 29.0 14.3 39 9.4 ENE 11 26 6 14 1013.2 1012.2 0.0
11/11:00am 28.1 27.1 14.6 43 8.2 ENE 13 19 7 10 1013.3 1012.3 0.0
11/10:30am 26.7 25.4 14.7 47 7.3 ENE 15 19 8 10 1013.5 1012.5 0.0
11/10:00am 25.6 23.8 14.5 50 6.7 E 17 22 9 12 1013.6 1012.6 0.0
11/09:30am 24.5 23.3 14.1 52 6.2 E 13 17 7 9 1013.6 1012.6 0.0
11/09:00am 22.8 21.3 13.0 54 5.7 E 13 17 7 9 1013.5 1012.5 0.0
11/08:30am 22.1 20.7 12.1 53 5.7 E 11 17 6 9 1013.3 1012.3 0.0
11/08:00am 20.3 18.5 10.9 54 5.2 E 11 13 6 7 1012.9 1011.9 0.0
11/07:30am 17.1 17.7 11.9 71 2.9 CALM 0 0 0 0 1012.8 1011.8 0.0
11/07:00am 16.6 15.2 10.9 69 3.1 ESE 9 11 5 6 1012.5 1011.5 0.0
11/06:30am 16.6 14.6 10.0 65 3.5 SE 11 13 6 7 1012.0 1011.0 0.0
11/06:00am 18.2 15.6 9.3 56 4.7 ESE 13 15 7 8 1011.7 1010.7 0.0
11/05:30am 18.6 16.6 8.7 52 5.2 E 9 13 5 7 1011.3 1010.3 0.0
11/05:00am 18.4 15.3 8.7 53 5.1 ESE 15 17 8 9 1011.1 1010.1 0.0
11/04:30am 18.6 15.6 7.5 48 5.7 ESE 13 17 7 9 1010.9 1009.9 0.0
11/04:00am 18.9 15.4 7.4 47 5.9 ESE 15 15 8 8 1010.8 1009.8 0.0
11/03:30am 18.3 15.6 7.3 48 5.6 E 11 17 6 9 1010.9 1009.9 0.0
11/03:00am 16.2 14.8 9.6 65 3.5 WSW 7 11 4 6 1010.8 1009.8 0.0
11/02:30am 17.5 16.1 8.7 56 4.6 ENE 6 7 3 4 1011.0 1010.0 0.0
11/02:00am 20.1 17.7 7.1 43 6.7 ENE 9 11 5 6 1011.1 1010.1 0.0
11/01:30am 20.0 17.1 6.7 42 6.8 ENE 11 13 6 7 1011.4 1010.4 0.0
11/01:00am 20.2 19.6 7.5 43 6.6 CALM 0 9 0 5 1011.5 1010.5 0.0
11/12:30am 21.2 20.3 7.9 42 7.0 SW 2 9 1 5 1011.7 1010.7 0.0
11/12:00am 22.4 20.4 7.3 37 7.9 SE 7 9 4 5 1011.7 1010.7 0.0
 
Date/Time
EDT
Temp
°C
App
Temp
°C
Dew
Point
Rel
Hum
%
Delta-T
°C
Wind Press
QNH
hPa
Press
MSL
hPa
Rain
since 9 am
mm
Dir
 
Spd
km/h
Gust
km/h
Spd
kts
Gust
kts
10/11:30pm 22.7 20.7 7.0 36 8.2 SE 7 11 4 6 1011.8 1010.8 0.0
10/11:00pm 22.9 20.3 7.8 38 8.0 S 11 13 6 7 1011.8 1010.8 0.0
10/10:30pm 23.1 20.4 7.3 36 8.3 SSW 11 11 6 6 1011.7 1010.7 0.0
10/10:00pm 23.8 21.1 5.4 30 9.4 SSW 9 9 5 5 1011.6 1010.6 0.0
10/09:30pm 23.7 21.2 6.6 33 8.9 SSW 9 9 5 5 1011.4 1010.4 0.0
10/09:00pm 25.1 22.5 6.1 29 9.9 SSW 9 11 5 6 1011.2 1010.2 0.0
10/08:30pm 27.2 24.0 2.9 21 12.1 SSW 9 11 5 6 1011.1 1010.1 0.0
10/08:00pm 29.1 25.2 3.3 19 13.1 WSW 13 13 7 7 1010.8 1009.8 0.0
10/07:30pm 31.8 26.8 -1.1 12 15.8 WSW 15 19 8 10 1010.4 1009.3 0.0
10/07:00pm 32.7 27.3 -1.0 11 16.3 WSW 17 22 9 12 1010.1 1009.0 0.0
10/06:30pm 34.0 28.6 -4.2 8 17.7 WSW 15 30 8 16 1009.9 1008.8 0.0
10/06:00pm 34.2 28.8 -4.7 8 17.9 W 15 24 8 13 1009.7 1008.6 0.0
10/05:30pm 34.7 29.8 -3.6 8 18.0 WSW 13 26 7 14 1009.7 1008.6 0.0
10/05:00pm 35.3 28.5 -5.0 7 18.6 W 22 33 12 18 1009.9 1008.8 0.0
10/04:30pm 35.4 29.3 -4.0 8 18.5 SW 19 30 10 16 1010.0 1008.9 0.0
10/04:00pm 35.4 29.0 -5.3 7 18.7 W 20 32 11 17 1010.3 1009.2 0.0
10/03:30pm 35.2 28.1 -4.2 8 18.4 WSW 24 37 13 20 1010.7 1009.7 0.0
10/03:00pm 34.1 30.0 -0.4 11 17.0 WNW 11 17 6 9 1011.1 1010.1 0.0
10/02:30pm 34.4 30.7 6.5 17 15.4 WSW 15 32 8 17 1011.6 1010.6 0.0
10/02:00pm 33.3 29.4 7.1 19 14.5 W 17 30 9 16 1012.1 1011.1 0.0
10/01:30pm 33.5 30.1 7.8 20 14.4 WSW 15 26 8 14 1012.5 1011.5 0.0
10/01:00pm 31.6 29.3 10.3 27 12.3 NW 13 20 7 11 1012.8 1011.8 0.0
10/12:30pm 31.5 29.7 12.1 30 11.5 WNW 13 28 7 15 1013.3 1012.3 0.0
10/12:00pm 30.3 28.8 13.1 34 10.3 NW 13 24 7 13 1013.9 1012.9 0.0
10/11:30am 29.7 27.5 13.4 36 9.8 NNW 17 28 9 15 1014.4 1013.3 0.0
10/11:00am 29.2 27.8 13.3 37 9.5 NNW 13 28 7 15 1014.8 1013.8 0.0
10/10:30am 27.7 25.3 13.9 42 8.3 NNW 19 26 10 14 1015.1 1014.1 0.0
10/10:00am 26.8 24.9 15.2 49 7.1 NNE 19 28 10 15 1015.2 1014.2 0.0
10/09:30am 25.5 23.4 14.7 51 6.5 N 19 28 10 15 1015.3 1014.3 0.0
10/09:00am 24.4 23.3 15.3 57 5.5 NE 15 19 8 10 1015.4 1014.4 0.0
10/08:30am 23.2 22.4 15.2 60 4.8 ENE 13 17 7 9 1015.6 1014.6 0.0
10/08:00am 22.2 21.7 14.8 63 4.4 ENE 11 13 6 7 1015.4 1014.4 0.0
10/07:30am 21.1 20.6 14.9 67 3.7 E 11 13 6 7 1015.0 1014.0 0.0
10/07:00am 20.1 18.7 14.5 70 3.3 E 15 19 8 10 1014.7 1013.6 0.0
10/06:30am 20.1 18.6 14.1 68 3.5 E 15 19 8 10 1014.4 1013.3 0.0
10/06:00am 20.1 19.3 13.9 67 3.6 E 11 15 6 8 1014.2 1013.1 0.0
10/05:30am 20.8 19.5 13.8 64 4.1 E 13 17 7 9 1013.8 1012.8 0.0
10/05:00am 21.2 19.0 13.4 61 4.5 E 17 19 9 10 1013.7 1012.7 0.0
10/04:30am 21.4 19.6 13.3 60 4.7 E 15 17 8 9 1013.7 1012.7 0.0
10/04:00am 21.9 20.9 13.3 58 5.0 ESE 11 13 6 7 1013.9 1012.9 0.0
10/03:30am 22.5 21.4 13.2 55 5.4 E 11 13 6 7 1013.8 1012.8 0.0
10/03:00am 22.8 21.3 13.0 54 5.7 E 13 17 7 9 1013.7 1012.7 0.0
10/02:30am 23.1 21.5 12.7 52 6.0 E 13 15 7 8 1013.9 1012.9 0.0
10/02:00am 22.9 22.4 12.5 52 6.0 NE 7 11 4 6 1014.0 1013.0 0.0
10/01:30am 23.1 21.7 12.1 50 6.3 E 11 13 6 7 1014.2 1013.1 0.0
10/01:00am 21.1 20.4 13.3 61 4.5 ESE 9 20 5 11 1014.3 1013.2 0.0
10/12:30am 21.5 21.4 13.2 59 4.8 NE 6 9 3 5 1014.3 1013.2 0.0
10/12:00am 21.5 22.5 14.2 63 4.3 NE 2 7 1 4 1014.4 1013.3 0.0
 
Date/Time
EDT
Temp
°C
App
Temp
°C
Dew
Point
Rel
Hum
%
Delta-T
°C
Wind Press
QNH
hPa
Press
MSL
hPa
Rain
since 9 am
mm
Dir
 
Spd
km/h
Gust
km/h
Spd
kts
Gust
kts
09/11:30pm 24.8 23.7 12.1 45 7.3 E 9 11 5 6 1014.6 1013.5 0.0
09/11:00pm 23.7 23.2 12.6 49 6.4 E 7 9 4 5 1014.8 1013.8 0.0
09/10:30pm 23.3 23.6 13.4 53 5.8 ENE 4 6 2 3 1015.0 1014.0 0.0
09/10:00pm 26.7 25.1 11.6 39 8.7 ENE 11 13 6 7 1014.9 1013.9 0.0
09/09:30pm 27.8 25.8 10.1 33 10.0 NE 11 13 6 7 1014.9 1013.9 0.0
09/09:00pm 28.5 26.7 9.4 30 10.7 E 9 9 5 5 1014.7 1013.6 0.0
09/08:30pm 29.6 28.2 9.6 28 11.3 E 7 9 4 5 1014.6 1013.5 0.0
09/08:00pm 30.7 30.6 9.6 27 12.0 CALM 0 7 0 4 1014.6 1013.5 0.0
09/07:30pm 32.1 32.0 9.5 24 12.9 CALM 0 6 0 3 1014.5 1013.4 0.0
09/07:00pm 32.8 30.7 8.2 21 13.8 SSW 9 13 5 7 1014.4 1013.3 0.0
09/06:30pm 33.1 30.6 6.7 19 14.5 W 9 15 5 8 1014.3 1013.2 0.0
09/06:00pm 33.6 29.9 6.4 18 14.9 WSW 15 20 8 11 1014.5 1013.4 0.0
09/05:30pm 33.9 30.8 7.3 19 14.8 WSW 13 20 7 11 1014.7 1013.6 0.0
09/05:00pm 32.9 29.9 7.5 20 14.1 WSW 13 22 7 12 1015.0 1014.0 0.0
09/04:30pm 33.5 31.8 10.0 23 13.6 WSW 9 15 5 8 1015.4 1014.4 0.0
09/04:00pm 32.8 31.4 9.4 23 13.4 WSW 7 15 4 8 1015.8 1014.8 0.0
09/03:30pm 33.4 31.9 8.4 21 14.1 ENE 6 13 3 7 1016.1 1015.1 0.0
09/03:00pm 32.2 30.5 9.9 25 12.8 N 9 20 5 11 1016.6 1015.6 0.0
09/02:30pm 32.1 29.8 10.3 26 12.6 NW 13 26 7 14 1017.2 1016.2 0.0
09/02:00pm 31.3 29.5 12.0 30 11.4 NE 13 20 7 11 1017.6 1016.6 0.0
09/01:30pm 31.2 28.6 13.1 33 10.9 NNE 19 30 10 16 1018.0 1017.0 0.0
09/01:00pm 29.5 27.7 12.2 34 10.2 NNE 13 26 7 14 1018.5 1017.5 0.0
09/12:30pm 29.9 28.5 13.4 36 9.9 NE 13 19 7 10 1018.9 1018.0 0.0
09/12:00pm 28.5 26.6 13.0 38 9.2 N 15 22 8 12 1019.5 1018.5 0.0
09/11:30am 28.6 27.4 14.0 40 8.8 NNE 13 20 7 11 1019.8 1018.8 0.0
09/11:00am 27.0 25.2 14.4 46 7.6 ENE 17 26 9 14 1020.0 1019.0 0.0

Other Formats:

Comma delimited format used in spreadsheet applications
http://www.bom.gov.au/fwo/IDN60801/IDN60801.94910.axf

JavaScript Object Notation format (JSON) in row-major order
http://www.bom.gov.au/fwo/IDN60801/IDN60801.94910.json